sensor_id;sensor_type;location;lat;lon;timestamp;temperature;humidity
23347;DHT22;36852;45.466;11.066;2023-02-28T00:00:10;9.00;67.10
23347;DHT22;36852;45.466;11.066;2023-02-28T00:02:42;9.00;67.00
23347;DHT22;36852;45.466;11.066;2023-02-28T00:05:12;9.00;67.20
23347;DHT22;36852;45.466;11.066;2023-02-28T00:07:40;9.10;67.20
23347;DHT22;36852;45.466;11.066;2023-02-28T00:10:15;9.10;66.30
23347;DHT22;36852;45.466;11.066;2023-02-28T00:12:46;9.00;66.30
23347;DHT22;36852;45.466;11.066;2023-02-28T00:15:15;9.10;66.20
23347;DHT22;36852;45.466;11.066;2023-02-28T00:17:43;9.00;66.50
23347;DHT22;36852;45.466;11.066;2023-02-28T00:20:12;9.10;66.70
23347;DHT22;36852;45.466;11.066;2023-02-28T00:22:43;9.10;66.80
23347;DHT22;36852;45.466;11.066;2023-02-28T00:25:13;9.10;66.80
23347;DHT22;36852;45.466;11.066;2023-02-28T00:30:25;9.10;67.00
23347;DHT22;36852;45.466;11.066;2023-02-28T00:32:54;9.10;66.70
23347;DHT22;36852;45.466;11.066;2023-02-28T00:35:21;9.00;66.70
23347;DHT22;36852;45.466;11.066;2023-02-28T00:37:49;9.00;66.50
23347;DHT22;36852;45.466;11.066;2023-02-28T00:40:17;9.00;65.80
23347;DHT22;36852;45.466;11.066;2023-02-28T00:42:45;9.00;66.00
23347;DHT22;36852;45.466;11.066;2023-02-28T00:45:13;9.00;66.60
23347;DHT22;36852;45.466;11.066;2023-02-28T00:47:41;9.00;66.60
23347;DHT22;36852;45.466;11.066;2023-02-28T00:50:11;9.00;66.70
23347;DHT22;36852;45.466;11.066;2023-02-28T00:52:39;9.00;66.80
23347;DHT22;36852;45.466;11.066;2023-02-28T00:55:07;9.00;66.80
23347;DHT22;36852;45.466;11.066;2023-02-28T00:57:35;9.00;67.70
23347;DHT22;36852;45.466;11.066;2023-02-28T01:00:04;9.00;66.70
23347;DHT22;36852;45.466;11.066;2023-02-28T01:02:33;9.00;66.90
23347;DHT22;36852;45.466;11.066;2023-02-28T01:05:01;9.00;66.60
23347;DHT22;36852;45.466;11.066;2023-02-28T01:07:29;8.90;66.80
23347;DHT22;36852;45.466;11.066;2023-02-28T01:09:58;8.90;67.00
23347;DHT22;36852;45.466;11.066;2023-02-28T01:15:10;8.90;67.50
23347;DHT22;36852;45.466;11.066;2023-02-28T01:17:38;8.90;67.90
23347;DHT22;36852;45.466;11.066;2023-02-28T01:20:08;8.90;67.80
23347;DHT22;36852;45.466;11.066;2023-02-28T01:22:37;8.90;67.80
23347;DHT22;36852;45.466;11.066;2023-02-28T01:25:05;8.90;67.90
23347;DHT22;36852;45.466;11.066;2023-02-28T01:30:14;8.90;67.90
23347;DHT22;36852;45.466;11.066;2023-02-28T01:32:43;8.80;67.70
23347;DHT22;36852;45.466;11.066;2023-02-28T01:35:11;8.80;67.70
23347;DHT22;36852;45.466;11.066;2023-02-28T01:37:38;8.80;67.90
23347;DHT22;36852;45.466;11.066;2023-02-28T01:40:08;8.80;68.20
23347;DHT22;36852;45.466;11.066;2023-02-28T01:42:36;8.80;67.80
23347;DHT22;36852;45.466;11.066;2023-02-28T01:45:27;8.80;67.80
23347;DHT22;36852;45.466;11.066;2023-02-28T01:47:59;8.80;68.20
23347;DHT22;36852;45.466;11.066;2023-02-28T01:50:31;8.80;68.20
23347;DHT22;36852;45.466;11.066;2023-02-28T01:53:02;8.80;67.90
23347;DHT22;36852;45.466;11.066;2023-02-28T01:55:32;8.80;68.20
23347;DHT22;36852;45.466;11.066;2023-02-28T01:58:02;8.80;68.10
23347;DHT22;36852;45.466;11.066;2023-02-28T02:00:32;8.80;68.50
23347;DHT22;36852;45.466;11.066;2023-02-28T02:03:06;8.80;68.30
23347;DHT22;36852;45.466;11.066;2023-02-28T02:05:37;8.80;68.60
23347;DHT22;36852;45.466;11.066;2023-02-28T02:08:11;8.80;68.60
23347;DHT22;36852;45.466;11.066;2023-02-28T02:10:43;8.80;68.90
23347;DHT22;36852;45.466;11.066;2023-02-28T02:18:53;8.70;69.50
23347;DHT22;36852;45.466;11.066;2023-02-28T02:27:06;8.70;69.50
23347;DHT22;36852;45.466;11.066;2023-02-28T02:32:21;8.70;69.60
23347;DHT22;36852;45.466;11.066;2023-02-28T02:40:26;8.70;69.80
23347;DHT22;36852;45.466;11.066;2023-02-28T02:48:39;8.70;70.10
23347;DHT22;36852;45.466;11.066;2023-02-28T02:51:14;8.70;70.40
23347;DHT22;36852;45.466;11.066;2023-02-28T02:53:49;8.70;70.20
23347;DHT22;36852;45.466;11.066;2023-02-28T02:56:16;8.70;70.30
23347;DHT22;36852;45.466;11.066;2023-02-28T02:58:47;8.70;69.90
23347;DHT22;36852;45.466;11.066;2023-02-28T03:01:22;8.70;69.30
23347;DHT22;36852;45.466;11.066;2023-02-28T03:03:59;8.70;69.30
23347;DHT22;36852;45.466;11.066;2023-02-28T03:06:28;8.60;68.10
23347;DHT22;36852;45.466;11.066;2023-02-28T03:08:55;8.70;69.10
23347;DHT22;36852;45.466;11.066;2023-02-28T03:11:24;8.70;69.70
23347;DHT22;36852;45.466;11.066;2023-02-28T03:27:43;8.70;69.60
23347;DHT22;36852;45.466;11.066;2023-02-28T03:30:22;8.70;68.70
23347;DHT22;36852;45.466;11.066;2023-02-28T03:35:34;8.70;68.90
23347;DHT22;36852;45.466;11.066;2023-02-28T03:38:49;8.60;69.20
23347;DHT22;36852;45.466;11.066;2023-02-28T03:41:06;8.60;69.40
23347;DHT22;36852;45.466;11.066;2023-02-28T03:43:43;8.60;70.00
23347;DHT22;36852;45.466;11.066;2023-02-28T03:46:14;8.60;70.30
23347;DHT22;36852;45.466;11.066;2023-02-28T03:48:48;8.60;70.00
23347;DHT22;36852;45.466;11.066;2023-02-28T03:51:18;8.60;69.40
23347;DHT22;36852;45.466;11.066;2023-02-28T03:53:50;8.50;69.20
23347;DHT22;36852;45.466;11.066;2023-02-28T03:56:45;8.60;69.30
23347;DHT22;36852;45.466;11.066;2023-02-28T03:59:18;8.60;69.60
23347;DHT22;36852;45.466;11.066;2023-02-28T04:01:47;8.60;70.20
23347;DHT22;36852;45.466;11.066;2023-02-28T04:04:17;8.50;70.10
23347;DHT22;36852;45.466;11.066;2023-02-28T04:06:45;8.50;70.00
23347;DHT22;36852;45.466;11.066;2023-02-28T04:09:14;8.50;70.00
23347;DHT22;36852;45.466;11.066;2023-02-28T04:11:48;8.50;69.70
23347;DHT22;36852;45.466;11.066;2023-02-28T04:14:12;8.50;69.40
23347;DHT22;36852;45.466;11.066;2023-02-28T04:16:42;8.50;70.10
23347;DHT22;36852;45.466;11.066;2023-02-28T04:19:11;8.50;70.30
23347;DHT22;36852;45.466;11.066;2023-02-28T04:21:46;8.50;70.10
23347;DHT22;36852;45.466;11.066;2023-02-28T04:24:17;8.50;70.00
23347;DHT22;36852;45.466;11.066;2023-02-28T04:26:47;8.50;70.30
23347;DHT22;36852;45.466;11.066;2023-02-28T04:29:28;8.50;69.90
23347;DHT22;36852;45.466;11.066;2023-02-28T04:31:55;8.50;70.60
23347;DHT22;36852;45.466;11.066;2023-02-28T04:34:32;8.50;70.60
23347;DHT22;36852;45.466;11.066;2023-02-28T04:37:00;8.50;70.90
23347;DHT22;36852;45.466;11.066;2023-02-28T04:39:34;8.50;71.20
23347;DHT22;36852;45.466;11.066;2023-02-28T04:42:00;8.50;70.80
23347;DHT22;36852;45.466;11.066;2023-02-28T04:44:28;8.50;71.30
23347;DHT22;36852;45.466;11.066;2023-02-28T04:46:56;8.50;71.50
23347;DHT22;36852;45.466;11.066;2023-02-28T04:49:24;8.40;72.10
23347;DHT22;36852;45.466;11.066;2023-02-28T04:51:53;8.40;71.40
23347;DHT22;36852;45.466;11.066;2023-02-28T04:54:21;8.40;71.50
23347;DHT22;36852;45.466;11.066;2023-02-28T04:56:55;8.40;71.90
23347;DHT22;36852;45.466;11.066;2023-02-28T04:59:23;8.30;71.80
23347;DHT22;36852;45.466;11.066;2023-02-28T05:01:51;8.40;71.70
23347;DHT22;36852;45.466;11.066;2023-02-28T05:04:19;8.40;71.30
23347;DHT22;36852;45.466;11.066;2023-02-28T05:06:47;8.40;71.50
23347;DHT22;36852;45.466;11.066;2023-02-28T05:09:16;8.40;71.30
23347;DHT22;36852;45.466;11.066;2023-02-28T05:11:44;8.40;71.50
23347;DHT22;36852;45.466;11.066;2023-02-28T05:14:19;8.40;71.20
23347;DHT22;36852;45.466;11.066;2023-02-28T05:16:48;8.40;71.10
23347;DHT22;36852;45.466;11.066;2023-02-28T05:19:16;8.40;71.30
23347;DHT22;36852;45.466;11.066;2023-02-28T05:21:50;8.40;71.60
23347;DHT22;36852;45.466;11.066;2023-02-28T05:24:20;8.40;71.80
23347;DHT22;36852;45.466;11.066;2023-02-28T05:26:52;8.40;72.40
23347;DHT22;36852;45.466;11.066;2023-02-28T05:29:21;8.40;72.50
23347;DHT22;36852;45.466;11.066;2023-02-28T05:31:49;8.30;72.60
23347;DHT22;36852;45.466;11.066;2023-02-28T05:34:17;8.30;72.20
23347;DHT22;36852;45.466;11.066;2023-02-28T05:36:45;8.30;71.40
23347;DHT22;36852;45.466;11.066;2023-02-28T05:39:13;8.30;71.10
23347;DHT22;36852;45.466;11.066;2023-02-28T05:41:42;8.30;71.50
23347;DHT22;36852;45.466;11.066;2023-02-28T05:44:11;8.30;71.20
23347;DHT22;36852;45.466;11.066;2023-02-28T05:46:39;8.30;71.30
23347;DHT22;36852;45.466;11.066;2023-02-28T05:49:08;8.30;71.50
23347;DHT22;36852;45.466;11.066;2023-02-28T05:51:36;8.30;71.00
23347;DHT22;36852;45.466;11.066;2023-02-28T05:54:06;8.30;71.60
23347;DHT22;36852;45.466;11.066;2023-02-28T05:56:34;8.40;72.00
23347;DHT22;36852;45.466;11.066;2023-02-28T05:59:06;8.30;71.60
23347;DHT22;36852;45.466;11.066;2023-02-28T06:01:37;8.30;71.40
23347;DHT22;36852;45.466;11.066;2023-02-28T06:04:08;8.30;72.90
23347;DHT22;36852;45.466;11.066;2023-02-28T06:06:38;8.30;72.50
23347;DHT22;36852;45.466;11.066;2023-02-28T06:09:06;8.30;72.30
23347;DHT22;36852;45.466;11.066;2023-02-28T06:11:35;8.40;72.60
23347;DHT22;36852;45.466;11.066;2023-02-28T06:14:03;8.30;72.40
23347;DHT22;36852;45.466;11.066;2023-02-28T06:16:33;8.30;72.50
23347;DHT22;36852;45.466;11.066;2023-02-28T06:19:03;8.40;72.40
23347;DHT22;36852;45.466;11.066;2023-02-28T06:21:31;8.40;72.20
23347;DHT22;36852;45.466;11.066;2023-02-28T06:24:00;8.40;72.40
23347;DHT22;36852;45.466;11.066;2023-02-28T06:26:29;8.40;74.90
23347;DHT22;36852;45.466;11.066;2023-02-28T06:28:58;8.40;73.50
23347;DHT22;36852;45.466;11.066;2023-02-28T06:31:26;8.40;72.70
23347;DHT22;36852;45.466;11.066;2023-02-28T06:33:58;8.40;72.40
23347;DHT22;36852;45.466;11.066;2023-02-28T06:36:25;8.40;72.30
23347;DHT22;36852;45.466;11.066;2023-02-28T06:38:53;8.40;72.30
23347;DHT22;36852;45.466;11.066;2023-02-28T06:41:24;8.40;72.50
23347;DHT22;36852;45.466;11.066;2023-02-28T06:43:53;8.50;72.40
23347;DHT22;36852;45.466;11.066;2023-02-28T06:46:22;8.50;72.10
23347;DHT22;36852;45.466;11.066;2023-02-28T06:48:50;8.50;72.10
23347;DHT22;36852;45.466;11.066;2023-02-28T06:51:20;8.40;72.00
23347;DHT22;36852;45.466;11.066;2023-02-28T06:53:50;8.50;72.60
23347;DHT22;36852;45.466;11.066;2023-02-28T06:59:05;8.50;72.70
23347;DHT22;36852;45.466;11.066;2023-02-28T07:01:33;8.50;72.30
23347;DHT22;36852;45.466;11.066;2023-02-28T07:04:01;8.50;72.40
23347;DHT22;36852;45.466;11.066;2023-02-28T07:06:33;8.50;71.90
23347;DHT22;36852;45.466;11.066;2023-02-28T07:09:01;8.60;72.20
23347;DHT22;36852;45.466;11.066;2023-02-28T07:11:30;8.60;72.40
23347;DHT22;36852;45.466;11.066;2023-02-28T07:14:00;8.60;72.20
23347;DHT22;36852;45.466;11.066;2023-02-28T07:16:28;8.60;71.70
23347;DHT22;36852;45.466;11.066;2023-02-28T07:18:57;8.70;71.80
23347;DHT22;36852;45.466;11.066;2023-02-28T07:21:25;8.70;72.40
23347;DHT22;36852;45.466;11.066;2023-02-28T07:23:55;8.70;72.70
23347;DHT22;36852;45.466;11.066;2023-02-28T07:26:24;8.80;72.80
23347;DHT22;36852;45.466;11.066;2023-02-28T07:28:52;8.80;72.40
23347;DHT22;36852;45.466;11.066;2023-02-28T07:31:20;8.90;72.30
23347;DHT22;36852;45.466;11.066;2023-02-28T07:33:48;8.90;71.60
23347;DHT22;36852;45.466;11.066;2023-02-28T07:36:16;9.00;72.40
23347;DHT22;36852;45.466;11.066;2023-02-28T07:38:47;9.10;72.70
23347;DHT22;36852;45.466;11.066;2023-02-28T07:41:21;9.10;71.60
23347;DHT22;36852;45.466;11.066;2023-02-28T07:43:54;9.10;71.80
23347;DHT22;36852;45.466;11.066;2023-02-28T07:46:22;9.10;71.30
23347;DHT22;36852;45.466;11.066;2023-02-28T07:48:51;9.20;71.30
23347;DHT22;36852;45.466;11.066;2023-02-28T07:54:00;9.20;70.50
23347;DHT22;36852;45.466;11.066;2023-02-28T07:56:31;9.20;70.70
23347;DHT22;36852;45.466;11.066;2023-02-28T07:58:59;9.20;71.00
23347;DHT22;36852;45.466;11.066;2023-02-28T08:01:28;9.20;71.50
23347;DHT22;36852;45.466;11.066;2023-02-28T08:04:17;9.30;71.50
23347;DHT22;36852;45.466;11.066;2023-02-28T08:06:48;9.30;71.40
23347;DHT22;36852;45.466;11.066;2023-02-28T08:09:19;9.30;71.60
23347;DHT22;36852;45.466;11.066;2023-02-28T08:11:47;9.40;70.90
23347;DHT22;36852;45.466;11.066;2023-02-28T08:14:14;9.40;70.90
23347;DHT22;36852;45.466;11.066;2023-02-28T08:16:42;9.50;70.60
23347;DHT22;36852;45.466;11.066;2023-02-28T08:19:11;9.50;69.70
23347;DHT22;36852;45.466;11.066;2023-02-28T08:21:39;9.50;70.10
23347;DHT22;36852;45.466;11.066;2023-02-28T08:24:16;9.60;70.60
23347;DHT22;36852;45.466;11.066;2023-02-28T08:26:44;9.70;70.90
23347;DHT22;36852;45.466;11.066;2023-02-28T08:29:13;9.70;69.40
23347;DHT22;36852;45.466;11.066;2023-02-28T08:31:42;9.70;68.20
23347;DHT22;36852;45.466;11.066;2023-02-28T08:34:13;9.70;68.20
23347;DHT22;36852;45.466;11.066;2023-02-28T08:36:41;9.70;67.40
23347;DHT22;36852;45.466;11.066;2023-02-28T08:39:12;9.70;67.80
23347;DHT22;36852;45.466;11.066;2023-02-28T08:41:42;9.80;68.60
23347;DHT22;36852;45.466;11.066;2023-02-28T08:44:10;9.80;68.90
23347;DHT22;36852;45.466;11.066;2023-02-28T08:46:39;9.90;69.00
23347;DHT22;36852;45.466;11.066;2023-02-28T08:49:10;9.90;68.50
23347;DHT22;36852;45.466;11.066;2023-02-28T08:51:47;10.00;68.70
23347;DHT22;36852;45.466;11.066;2023-02-28T08:54:15;10.00;67.70
23347;DHT22;36852;45.466;11.066;2023-02-28T08:56:45;10.10;68.00
23347;DHT22;36852;45.466;11.066;2023-02-28T08:59:17;10.20;67.50
23347;DHT22;36852;45.466;11.066;2023-02-28T09:01:45;10.20;67.40
23347;DHT22;36852;45.466;11.066;2023-02-28T09:04:13;10.30;67.50
23347;DHT22;36852;45.466;11.066;2023-02-28T09:06:43;10.30;67.50
23347;DHT22;36852;45.466;11.066;2023-02-28T09:09:15;10.40;67.80
23347;DHT22;36852;45.466;11.066;2023-02-28T09:11:43;10.40;66.00
23347;DHT22;36852;45.466;11.066;2023-02-28T09:14:11;10.50;66.00
23347;DHT22;36852;45.466;11.066;2023-02-28T09:16:39;10.50;66.30
23347;DHT22;36852;45.466;11.066;2023-02-28T09:19:12;10.60;66.50
23347;DHT22;36852;45.466;11.066;2023-02-28T09:21:40;10.60;66.50
23347;DHT22;36852;45.466;11.066;2023-02-28T09:24:09;10.70;65.80
23347;DHT22;36852;45.466;11.066;2023-02-28T09:26:40;10.70;65.60
23347;DHT22;36852;45.466;11.066;2023-02-28T09:29:10;10.80;65.30
23347;DHT22;36852;45.466;11.066;2023-02-28T09:31:38;10.80;63.90
23347;DHT22;36852;45.466;11.066;2023-02-28T09:34:06;10.80;63.30
23347;DHT22;36852;45.466;11.066;2023-02-28T09:36:36;10.80;63.60
23347;DHT22;36852;45.466;11.066;2023-02-28T09:39:09;10.90;63.90
23347;DHT22;36852;45.466;11.066;2023-02-28T09:41:39;10.90;63.60
23347;DHT22;36852;45.466;11.066;2023-02-28T09:44:18;10.90;63.10
23347;DHT22;36852;45.466;11.066;2023-02-28T09:46:48;10.80;63.40
23347;DHT22;36852;45.466;11.066;2023-02-28T09:49:19;10.90;64.00
23347;DHT22;36852;45.466;11.066;2023-02-28T09:51:58;10.90;64.90
23347;DHT22;36852;45.466;11.066;2023-02-28T09:54:28;10.90;64.60
23347;DHT22;36852;45.466;11.066;2023-02-28T09:57:13;11.00;64.30
23347;DHT22;36852;45.466;11.066;2023-02-28T10:02:41;11.10;63.50
23347;DHT22;36852;45.466;11.066;2023-02-28T10:08:02;11.30;62.70
23347;DHT22;36852;45.466;11.066;2023-02-28T10:13:20;11.30;62.00
23347;DHT22;36852;45.466;11.066;2023-02-28T10:15:51;11.30;61.70
23347;DHT22;36852;45.466;11.066;2023-02-28T10:18:23;11.40;62.30
23347;DHT22;36852;45.466;11.066;2023-02-28T10:23:35;11.40;62.60
23347;DHT22;36852;45.466;11.066;2023-02-28T10:26:12;11.40;63.00
23347;DHT22;36852;45.466;11.066;2023-02-28T10:28:40;11.60;62.70
23347;DHT22;36852;45.466;11.066;2023-02-28T10:31:18;11.60;62.70
23347;DHT22;36852;45.466;11.066;2023-02-28T10:33:47;11.60;63.30
23347;DHT22;36852;45.466;11.066;2023-02-28T10:36:19;11.70;62.60
23347;DHT22;36852;45.466;11.066;2023-02-28T10:38:55;11.70;63.50
23347;DHT22;36852;45.466;11.066;2023-02-28T10:41:30;11.80;61.90
23347;DHT22;36852;45.466;11.066;2023-02-28T10:44:12;11.80;62.50
23347;DHT22;36852;45.466;11.066;2023-02-28T10:46:40;11.80;62.70
23347;DHT22;36852;45.466;11.066;2023-02-28T10:49:20;11.90;62.30
23347;DHT22;36852;45.466;11.066;2023-02-28T10:51:59;11.90;62.30
23347;DHT22;36852;45.466;11.066;2023-02-28T10:54:34;11.90;61.70
23347;DHT22;36852;45.466;11.066;2023-02-28T10:57:11;11.90;62.00
23347;DHT22;36852;45.466;11.066;2023-02-28T10:59:37;11.90;62.10
23347;DHT22;36852;45.466;11.066;2023-02-28T11:02:34;12.00;62.10
23347;DHT22;36852;45.466;11.066;2023-02-28T11:05:25;11.90;62.10
23347;DHT22;36852;45.466;11.066;2023-02-28T11:07:53;12.00;62.10
23347;DHT22;36852;45.466;11.066;2023-02-28T11:10:25;12.10;61.40
23347;DHT22;36852;45.466;11.066;2023-02-28T11:12:56;12.10;61.90
23347;DHT22;36852;45.466;11.066;2023-02-28T11:15:29;12.10;61.90
23347;DHT22;36852;45.466;11.066;2023-02-28T11:20:41;12.20;62.40
23347;DHT22;36852;45.466;11.066;2023-02-28T11:23:12;12.30;62.20
23347;DHT22;36852;45.466;11.066;2023-02-28T11:25:46;12.40;62.80
23347;DHT22;36852;45.466;11.066;2023-02-28T11:31:22;12.40;60.60
23347;DHT22;36852;45.466;11.066;2023-02-28T11:33:52;12.50;60.80
23347;DHT22;36852;45.466;11.066;2023-02-28T11:36:22;12.50;60.90
23347;DHT22;36852;45.466;11.066;2023-02-28T11:38:56;12.60;60.70
23347;DHT22;36852;45.466;11.066;2023-02-28T11:44:39;12.70;60.60
23347;DHT22;36852;45.466;11.066;2023-02-28T11:50:21;12.80;61.10
23347;DHT22;36852;45.466;11.066;2023-02-28T11:55:28;12.90;61.00
23347;DHT22;36852;45.466;11.066;2023-02-28T12:03:16;13.10;60.40
23347;DHT22;36852;45.466;11.066;2023-02-28T12:05:46;13.20;59.70
23347;DHT22;36852;45.466;11.066;2023-02-28T12:11:19;13.30;59.70
23347;DHT22;36852;45.466;11.066;2023-02-28T12:13:53;13.40;59.30
23347;DHT22;36852;45.466;11.066;2023-02-28T12:16:33;13.40;59.40
23347;DHT22;36852;45.466;11.066;2023-02-28T12:19:17;13.50;59.30
23347;DHT22;36852;45.466;11.066;2023-02-28T12:24:47;13.60;59.20
23347;DHT22;36852;45.466;11.066;2023-02-28T12:33:03;13.90;58.40
23347;DHT22;36852;45.466;11.066;2023-02-28T12:40:53;14.30;58.40
23347;DHT22;36852;45.466;11.066;2023-02-28T12:43:21;14.40;58.10
23347;DHT22;36852;45.466;11.066;2023-02-28T12:48:38;14.70;57.90
23347;DHT22;36852;45.466;11.066;2023-02-28T12:51:24;14.90;57.90
23347;DHT22;36852;45.466;11.066;2023-02-28T12:56:47;15.40;60.20
23347;DHT22;36852;45.466;11.066;2023-02-28T12:59:25;15.70;57.70
23347;DHT22;36852;45.466;11.066;2023-02-28T13:04:47;15.90;56.90
23347;DHT22;36852;45.466;11.066;2023-02-28T13:10:05;16.40;57.20
23347;DHT22;36852;45.466;11.066;2023-02-28T13:12:35;16.70;57.40
23347;DHT22;36852;45.466;11.066;2023-02-28T13:17:51;17.30;55.40
23347;DHT22;36852;45.466;11.066;2023-02-28T13:20:22;17.50;53.40
23347;DHT22;36852;45.466;11.066;2023-02-28T13:22:54;17.60;53.10
23347;DHT22;36852;45.466;11.066;2023-02-28T13:27:55;17.90;53.00
23347;DHT22;36852;45.466;11.066;2023-02-28T13:38:42;18.10;52.30
23347;DHT22;36852;45.466;11.066;2023-02-28T13:49:25;18.30;49.80
23347;DHT22;36852;45.466;11.066;2023-02-28T13:55:13;18.50;50.00
23347;DHT22;36852;45.466;11.066;2023-02-28T14:03:48;19.10;49.20
23347;DHT22;36852;45.466;11.066;2023-02-28T14:11:56;19.70;48.10
23347;DHT22;36852;45.466;11.066;2023-02-28T14:17:15;20.20;46.70
23347;DHT22;36852;45.466;11.066;2023-02-28T14:19:45;20.30;46.30
23347;DHT22;36852;45.466;11.066;2023-02-28T14:25:33;20.70;46.20
23347;DHT22;36852;45.466;11.066;2023-02-28T14:32:01;21.10;44.80
23347;DHT22;36852;45.466;11.066;2023-02-28T14:33:46;21.10;44.30
23347;DHT22;36852;45.466;11.066;2023-02-28T14:39:14;21.50;43.60
23347;DHT22;36852;45.466;11.066;2023-02-28T14:41:44;22.00;43.30
23347;DHT22;36852;45.466;11.066;2023-02-28T14:44:24;22.50;41.80
23347;DHT22;36852;45.466;11.066;2023-02-28T14:46:59;23.00;40.00
23347;DHT22;36852;45.466;11.066;2023-02-28T14:49:33;23.50;38.80
23347;DHT22;36852;45.466;11.066;2023-02-28T14:52:15;24.30;38.50
23347;DHT22;36852;45.466;11.066;2023-02-28T14:54:43;25.00;36.30
23347;DHT22;36852;45.466;11.066;2023-02-28T14:57:27;25.80;35.70
23347;DHT22;36852;45.466;11.066;2023-02-28T15:00:11;26.40;34.00
23347;DHT22;36852;45.466;11.066;2023-02-28T15:02:39;26.90;32.80
23347;DHT22;36852;45.466;11.066;2023-02-28T15:07:47;27.70;30.60
23347;DHT22;36852;45.466;11.066;2023-02-28T15:10:19;28.10;29.90
23347;DHT22;36852;45.466;11.066;2023-02-28T15:24:21;29.20;26.60
23347;DHT22;36852;45.466;11.066;2023-02-28T15:26:58;29.50;26.30
23347;DHT22;36852;45.466;11.066;2023-02-28T15:29:29;29.10;26.10
23347;DHT22;36852;45.466;11.066;2023-02-28T15:32:04;28.40;26.50
23347;DHT22;36852;45.466;11.066;2023-02-28T15:34:41;27.80;26.90
23347;DHT22;36852;45.466;11.066;2023-02-28T15:40:28;27.30;27.40
23347;DHT22;36852;45.466;11.066;2023-02-28T15:43:05;27.40;27.20
23347;DHT22;36852;45.466;11.066;2023-02-28T15:45:55;27.60;27.20
23347;DHT22;36852;45.466;11.066;2023-02-28T15:48:30;27.70;27.10
23347;DHT22;36852;45.466;11.066;2023-02-28T15:56:29;27.80;26.80
23347;DHT22;36852;45.466;11.066;2023-02-28T15:59:00;27.70;27.00
23347;DHT22;36852;45.466;11.066;2023-02-28T16:01:31;27.40;26.80
23347;DHT22;36852;45.466;11.066;2023-02-28T16:04:03;27.20;27.10
23347;DHT22;36852;45.466;11.066;2023-02-28T16:06:40;26.90;27.20
23347;DHT22;36852;45.466;11.066;2023-02-28T16:09:14;26.60;27.40
23347;DHT22;36852;45.466;11.066;2023-02-28T16:11:49;26.30;27.50
23347;DHT22;36852;45.466;11.066;2023-02-28T16:14:20;26.00;27.60
23347;DHT22;36852;45.466;11.066;2023-02-28T16:16:53;25.80;27.80
23347;DHT22;36852;45.466;11.066;2023-02-28T16:19:22;25.40;27.90
23347;DHT22;36852;45.466;11.066;2023-02-28T16:21:50;25.10;28.00
23347;DHT22;36852;45.466;11.066;2023-02-28T16:24:20;24.60;28.70
23347;DHT22;36852;45.466;11.066;2023-02-28T16:26:50;24.10;29.20
23347;DHT22;36852;45.466;11.066;2023-02-28T16:29:28;23.60;29.80
23347;DHT22;36852;45.466;11.066;2023-02-28T16:31:58;23.20;30.00
23347;DHT22;36852;45.466;11.066;2023-02-28T16:34:28;22.70;30.60
23347;DHT22;36852;45.466;11.066;2023-02-28T16:36:56;22.00;31.60
23347;DHT22;36852;45.466;11.066;2023-02-28T16:39:24;21.30;32.60
23347;DHT22;36852;45.466;11.066;2023-02-28T16:41:52;20.60;33.60
23347;DHT22;36852;45.466;11.066;2023-02-28T16:44:29;20.00;34.80
23347;DHT22;36852;45.466;11.066;2023-02-28T16:47:03;19.30;35.90
23347;DHT22;36852;45.466;11.066;2023-02-28T16:49:31;18.70;37.10
23347;DHT22;36852;45.466;11.066;2023-02-28T16:51:59;18.30;38.50
23347;DHT22;36852;45.466;11.066;2023-02-28T16:54:27;17.80;38.90
23347;DHT22;36852;45.466;11.066;2023-02-28T16:56:55;17.40;39.70
23347;DHT22;36852;45.466;11.066;2023-02-28T16:59:24;17.10;40.40
23347;DHT22;36852;45.466;11.066;2023-02-28T17:01:55;16.80;41.50
23347;DHT22;36852;45.466;11.066;2023-02-28T17:04:26;16.50;41.90
23347;DHT22;36852;45.466;11.066;2023-02-28T17:06:55;16.20;42.50
23347;DHT22;36852;45.466;11.066;2023-02-28T17:09:23;15.90;43.00
23347;DHT22;36852;45.466;11.066;2023-02-28T17:11:54;15.70;43.50
23347;DHT22;36852;45.466;11.066;2023-02-28T17:14:26;15.50;44.00
23347;DHT22;36852;45.466;11.066;2023-02-28T17:16:55;15.40;44.60
23347;DHT22;36852;45.466;11.066;2023-02-28T17:19:25;15.30;45.10
23347;DHT22;36852;45.466;11.066;2023-02-28T17:21:53;15.10;45.40
23347;DHT22;36852;45.466;11.066;2023-02-28T17:27:03;14.80;46.10
23347;DHT22;36852;45.466;11.066;2023-02-28T17:29:31;14.60;46.60
23347;DHT22;36852;45.466;11.066;2023-02-28T17:31:59;14.50;47.10
23347;DHT22;36852;45.466;11.066;2023-02-28T17:34:29;14.40;48.00
23347;DHT22;36852;45.466;11.066;2023-02-28T17:36:57;14.20;48.50
23347;DHT22;36852;45.466;11.066;2023-02-28T17:39:30;14.10;49.00
23347;DHT22;36852;45.466;11.066;2023-02-28T17:41:58;14.00;49.30
23347;DHT22;36852;45.466;11.066;2023-02-28T17:44:26;13.90;50.00
23347;DHT22;36852;45.466;11.066;2023-02-28T17:46:55;13.80;50.30
23347;DHT22;36852;45.466;11.066;2023-02-28T17:49:23;13.70;50.50
23347;DHT22;36852;45.466;11.066;2023-02-28T17:51:51;13.60;51.00
23347;DHT22;36852;45.466;11.066;2023-02-28T17:54:19;13.50;51.30
23347;DHT22;36852;45.466;11.066;2023-02-28T17:56:48;13.40;51.60
23347;DHT22;36852;45.466;11.066;2023-02-28T17:59:16;13.40;51.70
23347;DHT22;36852;45.466;11.066;2023-02-28T18:01:44;13.30;52.30
23347;DHT22;36852;45.466;11.066;2023-02-28T18:04:12;13.30;52.70
23347;DHT22;36852;45.466;11.066;2023-02-28T18:06:43;13.20;53.10
23347;DHT22;36852;45.466;11.066;2023-02-28T18:09:15;13.10;53.20
23347;DHT22;36852;45.466;11.066;2023-02-28T18:11:44;13.00;53.10
23347;DHT22;36852;45.466;11.066;2023-02-28T18:14:20;12.90;53.10
23347;DHT22;36852;45.466;11.066;2023-02-28T18:16:50;12.80;53.70
23347;DHT22;36852;45.466;11.066;2023-02-28T18:19:19;12.70;54.20
23347;DHT22;36852;45.466;11.066;2023-02-28T18:21:51;12.60;54.80
23347;DHT22;36852;45.466;11.066;2023-02-28T18:24:21;12.60;54.90
23347;DHT22;36852;45.466;11.066;2023-02-28T18:26:51;12.60;55.00
23347;DHT22;36852;45.466;11.066;2023-02-28T18:29:22;12.50;55.30
23347;DHT22;36852;45.466;11.066;2023-02-28T18:31:52;12.50;55.70
23347;DHT22;36852;45.466;11.066;2023-02-28T18:34:22;12.40;56.50
23347;DHT22;36852;45.466;11.066;2023-02-28T18:36:51;12.30;56.80
23347;DHT22;36852;45.466;11.066;2023-02-28T18:39:20;12.20;56.70
23347;DHT22;36852;45.466;11.066;2023-02-28T18:41:48;12.10;56.70
23347;DHT22;36852;45.466;11.066;2023-02-28T18:44:16;12.00;57.20
23347;DHT22;36852;45.466;11.066;2023-02-28T18:46:52;12.00;57.40
23347;DHT22;36852;45.466;11.066;2023-02-28T18:49:21;11.90;57.60
23347;DHT22;36852;45.466;11.066;2023-02-28T18:51:49;11.90;58.00
23347;DHT22;36852;45.466;11.066;2023-02-28T18:54:17;11.80;58.80